createdAt,value
2022-12-22T00:00:55.897Z,2.67
2022-12-22T00:06:16.070Z,2.57
2022-12-22T00:11:36.438Z,2.51
2022-12-22T00:16:57.311Z,2.37
2022-12-22T00:22:28.812Z,2.19
2022-12-22T00:27:50.550Z,2.28
2022-12-22T00:33:10.863Z,2.22
2022-12-22T00:38:40.326Z,2.33
2022-12-22T00:44:00.384Z,2.23
2022-12-22T00:49:21.218Z,2.20
2022-12-22T00:54:42.129Z,2.34
2022-12-22T01:00:02.472Z,2.42
2022-12-22T01:05:22.667Z,2.39
2022-12-22T01:10:44.867Z,2.49
2022-12-22T01:16:05.238Z,2.45
2022-12-22T01:21:25.174Z,2.46
2022-12-22T01:26:45.424Z,2.35
2022-12-22T01:32:05.285Z,2.21
2022-12-22T01:37:25.582Z,1.98
2022-12-22T01:42:46.442Z,1.99
2022-12-22T01:48:06.832Z,2.14
2022-12-22T01:53:31.073Z,2.04
2022-12-22T01:58:54.794Z,2.06
2022-12-22T02:04:15.506Z,2.06
2022-12-22T02:10:02.756Z,2.20
2022-12-22T02:15:58.418Z,2.16
2022-12-22T02:21:24.281Z,2.03
2022-12-22T02:26:52.229Z,2.09
2022-12-22T02:32:12.528Z,2.29
2022-12-22T02:38:02.118Z,2.50
2022-12-22T02:43:41.369Z,2.46
2022-12-22T02:49:16.514Z,2.71
2022-12-22T02:54:37.728Z,2.69
2022-12-22T02:59:58.000Z,2.74
2022-12-22T03:05:18.207Z,2.71
2022-12-22T03:10:38.530Z,2.53
2022-12-22T03:15:58.843Z,2.54
2022-12-22T03:21:19.140Z,2.56
2022-12-22T03:26:20.771Z,2.45
2022-12-22T03:31:22.424Z,2.22
2022-12-22T03:36:24.085Z,2.23
2022-12-22T03:41:44.298Z,2.37
2022-12-22T03:46:45.983Z,2.44
2022-12-22T03:51:49.997Z,2.56
2022-12-22T03:56:53.074Z,2.55
2022-12-22T04:01:55.090Z,2.34
2022-12-22T04:06:56.854Z,2.43
2022-12-22T04:12:16.702Z,2.64
2022-12-22T04:17:18.316Z,2.65
2022-12-22T04:22:19.928Z,2.68
2022-12-22T04:27:21.547Z,2.73
2022-12-22T04:32:23.408Z,2.91
2022-12-22T04:37:25.087Z,2.71
2022-12-22T04:42:26.738Z,2.65
2022-12-22T04:47:28.402Z,2.71
2022-12-22T04:52:30.097Z,2.66
2022-12-22T04:57:34.311Z,2.64
2022-12-22T05:02:40.405Z,2.67
2022-12-22T05:07:43.411Z,2.52
2022-12-22T05:12:57.164Z,2.49
2022-12-22T05:17:59.993Z,2.54
2022-12-22T05:23:01.639Z,2.63
2022-12-22T05:28:03.448Z,2.75
2022-12-22T05:33:05.040Z,2.91
2022-12-22T05:38:06.628Z,2.90
2022-12-22T05:43:08.346Z,2.69
2022-12-22T05:48:09.957Z,2.95
2022-12-22T05:53:11.628Z,2.95
2022-12-22T05:58:13.252Z,3.07
2022-12-22T06:03:14.974Z,3.11
2022-12-22T06:08:16.778Z,3.02
2022-12-22T06:13:18.392Z,3.07
2022-12-22T06:18:19.998Z,3.10
2022-12-22T06:23:22.226Z,3.27
2022-12-22T06:28:24.389Z,3.26
2022-12-22T06:33:26.048Z,3.18
2022-12-22T06:38:28.311Z,3.33
2022-12-22T06:43:30.147Z,3.45
2022-12-22T06:48:31.803Z,3.32
2022-12-22T06:53:33.419Z,3.43
2022-12-22T06:58:35.030Z,3.28
2022-12-22T07:03:36.810Z,4.05
2022-12-22T07:08:38.432Z,3.75
2022-12-22T07:13:40.457Z,5.44
2022-12-22T07:18:42.952Z,6.75
2022-12-22T07:23:44.654Z,7.28
2022-12-22T07:28:46.291Z,7.10
2022-12-22T07:33:47.947Z,8.31
2022-12-22T07:38:51.048Z,8.42
2022-12-22T07:43:54.156Z,8.76
2022-12-22T07:49:14.937Z,8.83
2022-12-22T07:54:16.956Z,9.10
2022-12-22T07:59:19.025Z,9.20
2022-12-22T08:04:22.039Z,9.09
2022-12-22T08:09:23.767Z,9.15
2022-12-22T08:14:25.424Z,9.32
2022-12-22T08:19:27.062Z,9.43
2022-12-22T08:24:29.089Z,9.49
2022-12-22T08:29:38.488Z,9.52
2022-12-22T08:34:40.491Z,9.77
2022-12-22T08:39:44.558Z,9.91
2022-12-22T08:44:47.408Z,9.96
2022-12-22T08:49:50.435Z,10.09
2022-12-22T08:54:52.036Z,10.19
2022-12-22T08:59:53.649Z,10.28
2022-12-22T09:04:55.267Z,10.23
2022-12-22T09:09:58.637Z,10.35
2022-12-22T09:15:00.266Z,10.59
2022-12-22T09:20:02.688Z,10.78
2022-12-22T09:25:04.589Z,10.90
2022-12-22T09:30:07.032Z,10.92
2022-12-22T09:35:08.862Z,10.87
2022-12-22T09:40:11.219Z,10.82
2022-12-22T09:45:20.180Z,10.90
2022-12-22T09:50:24.447Z,11.15
2022-12-22T09:55:26.032Z,11.35
2022-12-22T10:00:28.470Z,11.41
2022-12-22T10:05:43.537Z,11.65
2022-12-22T10:10:45.153Z,11.81
2022-12-22T10:15:47.358Z,11.96
2022-12-22T10:21:13.462Z,11.95
2022-12-22T10:26:30.797Z,11.81
2022-12-22T10:31:36.255Z,11.64
2022-12-22T10:36:38.954Z,11.54
2022-12-22T10:41:44.789Z,11.45
2022-12-22T10:46:49.677Z,11.50
2022-12-22T10:51:57.153Z,11.39
2022-12-22T10:57:01.898Z,11.58
2022-12-22T11:02:27.883Z,11.60
2022-12-22T11:07:35.633Z,11.77
2022-12-22T11:13:07.504Z,11.84
2022-12-22T11:18:39.623Z,11.75
2022-12-22T11:24:13.330Z,11.50
2022-12-22T11:29:48.745Z,11.08
2022-12-22T11:34:53.120Z,11.00
2022-12-22T11:40:02.029Z,11.03
2022-12-22T11:45:12.685Z,11.23
2022-12-22T11:50:57.390Z,11.48
2022-12-22T11:56:21.064Z,12.56
2022-12-22T12:01:40.716Z,12.68
2022-12-22T12:06:57.241Z,12.72
2022-12-22T12:12:09.589Z,12.08
2022-12-22T12:17:52.172Z,11.95
2022-12-22T12:23:27.349Z,12.15
2022-12-22T12:28:56.260Z,12.89
2022-12-22T12:34:03.754Z,12.87
2022-12-22T12:39:25.497Z,12.58
2022-12-22T12:44:31.568Z,12.68
2022-12-22T12:49:36.414Z,12.94
2022-12-22T12:54:43.079Z,12.93
2022-12-22T12:59:44.633Z,13.01
2022-12-22T13:05:13.412Z,13.09
2022-12-22T13:10:25.761Z,13.08
2022-12-22T13:15:32.021Z,12.84
2022-12-22T13:20:36.108Z,12.75
2022-12-22T13:25:54.023Z,12.71
2022-12-22T13:31:04.791Z,12.51
2022-12-22T13:36:08.481Z,12.59
2022-12-22T13:41:24.747Z,12.55
2022-12-22T13:46:28.834Z,12.41
2022-12-22T13:51:36.115Z,12.27
2022-12-22T13:56:50.674Z,12.17
2022-12-22T14:01:58.292Z,12.09
2022-12-22T14:07:19.124Z,12.05
2022-12-22T14:12:23.961Z,11.94
2022-12-22T14:17:30.415Z,11.76
2022-12-22T14:22:47.176Z,11.72
2022-12-22T14:27:53.058Z,11.64
2022-12-22T14:32:56.251Z,11.43
2022-12-22T14:38:06.777Z,11.53
2022-12-22T14:43:24.665Z,11.52
2022-12-22T14:48:32.216Z,11.58
2022-12-22T14:53:45.187Z,11.60
2022-12-22T14:58:48.811Z,11.53
2022-12-22T15:04:05.708Z,11.54
2022-12-22T15:09:13.145Z,11.65
2022-12-22T15:14:24.132Z,11.73
2022-12-22T15:19:30.061Z,11.56
2022-12-22T15:24:31.674Z,10.96
2022-12-22T15:29:33.310Z,10.63
2022-12-22T15:34:34.951Z,10.67
2022-12-22T15:39:36.569Z,10.62
2022-12-22T15:44:39.113Z,10.37
2022-12-22T15:49:41.196Z,10.21
2022-12-22T15:54:42.861Z,10.14
2022-12-22T15:59:44.709Z,10.10
2022-12-22T16:04:46.300Z,10.06
2022-12-22T16:09:48.767Z,9.95
2022-12-22T16:14:53.038Z,9.87
2022-12-22T16:19:55.776Z,9.93
2022-12-22T16:24:57.661Z,9.87
2022-12-22T16:29:59.293Z,9.79
2022-12-22T16:35:16.164Z,9.71
2022-12-22T16:40:19.298Z,9.65
2022-12-22T16:45:24.371Z,9.60
2022-12-22T16:50:33.293Z,9.55
2022-12-22T16:55:36.011Z,9.62
2022-12-22T17:00:38.711Z,9.51
2022-12-22T17:05:44.917Z,9.45
2022-12-22T17:10:47.339Z,9.39
2022-12-22T17:15:49.033Z,9.38
2022-12-22T17:20:54.325Z,9.46
2022-12-22T17:25:57.732Z,9.43
2022-12-22T17:30:59.499Z,9.38
2022-12-22T17:36:01.461Z,9.38
2022-12-22T17:41:03.331Z,9.37
2022-12-22T17:46:05.958Z,9.28
2022-12-22T17:51:16.553Z,9.33
2022-12-22T17:56:20.566Z,9.27
2022-12-22T18:01:31.879Z,9.18
2022-12-22T18:06:35.499Z,9.15
2022-12-22T18:11:42.094Z,9.17
2022-12-22T18:16:47.297Z,9.20
2022-12-22T18:21:48.999Z,9.28
2022-12-22T18:26:50.642Z,9.32
2022-12-22T18:31:52.339Z,9.24
2022-12-22T18:36:54.089Z,9.26
2022-12-22T18:41:56.393Z,9.01
2022-12-22T18:46:58.099Z,9.02
2022-12-22T18:51:59.891Z,8.84
2022-12-22T18:57:01.514Z,8.69
2022-12-22T19:02:19.959Z,8.39
2022-12-22T19:07:23.874Z,8.40
2022-12-22T19:12:27.991Z,8.45
2022-12-22T19:17:29.643Z,8.57
2022-12-22T19:22:31.263Z,8.04
2022-12-22T19:27:33.316Z,7.95
2022-12-22T19:32:46.277Z,7.78
2022-12-22T19:37:50.130Z,7.83
2022-12-22T19:42:55.111Z,8.01
2022-12-22T19:47:57.795Z,7.89
2022-12-22T19:53:00.031Z,7.95
2022-12-22T19:58:02.415Z,7.84
2022-12-22T20:03:06.105Z,7.95
2022-12-22T20:08:08.073Z,7.79
2022-12-22T20:13:21.693Z,7.61
2022-12-22T20:18:27.593Z,7.41
2022-12-22T20:23:31.353Z,7.60
2022-12-22T20:28:35.478Z,7.69
2022-12-22T20:33:37.182Z,7.64
2022-12-22T20:38:41.710Z,7.90
2022-12-22T20:43:43.463Z,7.70
2022-12-22T20:48:49.071Z,7.64
2022-12-22T20:53:51.958Z,7.62
2022-12-22T20:58:54.685Z,7.68
2022-12-22T21:03:56.379Z,7.69
2022-12-22T21:08:59.449Z,7.79
2022-12-22T21:14:01.100Z,8.00
2022-12-22T21:19:03.596Z,8.08
2022-12-22T21:24:05.536Z,8.49
2022-12-22T21:29:13.205Z,8.24
2022-12-22T21:34:14.912Z,7.83
2022-12-22T21:39:23.708Z,7.72
2022-12-22T21:44:25.650Z,7.83
2022-12-22T21:49:30.926Z,7.79
2022-12-22T21:54:32.557Z,7.98
2022-12-22T21:59:34.175Z,8.10
2022-12-22T22:04:35.784Z,8.28
2022-12-22T22:09:37.486Z,8.12
2022-12-22T22:14:39.104Z,8.46
2022-12-22T22:19:40.724Z,8.64
2022-12-22T22:24:42.337Z,8.76
2022-12-22T22:29:44.015Z,8.89
2022-12-22T22:34:45.614Z,8.74
2022-12-22T22:39:47.234Z,8.62
2022-12-22T22:44:49.005Z,8.74
2022-12-22T22:49:50.636Z,8.76
2022-12-22T22:54:52.279Z,8.61
2022-12-22T22:59:54.004Z,8.66
2022-12-22T23:04:55.773Z,8.61
2022-12-22T23:09:57.365Z,8.52
2022-12-22T23:15:01.808Z,8.39
2022-12-22T23:20:03.812Z,8.19
2022-12-22T23:25:05.710Z,7.79
2022-12-22T23:30:07.875Z,7.54
2022-12-22T23:35:09.680Z,7.19
2022-12-22T23:40:41.755Z,6.96
2022-12-22T23:45:34.208Z,6.87
2022-12-22T23:50:36.604Z,6.63
2022-12-22T23:55:38.218Z,6.59
